createdAt,value
2023-02-26T00:02:27.029Z,8.60
2023-02-26T00:04:57.992Z,8.40
2023-02-26T00:07:29.495Z,8.30
2023-02-26T00:10:03.960Z,8.40
2023-02-26T00:12:35.765Z,8.30
2023-02-26T00:15:08.450Z,8.30
2023-02-26T00:18:07.583Z,8.60
2023-02-26T00:20:38.826Z,8.50
2023-02-26T00:23:15.955Z,8.50
2023-02-26T00:25:47.362Z,8.70
2023-02-26T00:28:18.621Z,8.70
2023-02-26T00:30:50.081Z,8.60
2023-02-26T00:33:21.444Z,8.70
2023-02-26T00:36:04.124Z,8.30
2023-02-26T00:38:36.717Z,8.40
2023-02-26T00:41:08.850Z,8.40
2023-02-26T00:43:40.260Z,8.10
2023-02-26T00:46:37.155Z,8.30
2023-02-26T00:49:32.296Z,8.20
2023-02-26T00:52:06.871Z,8.20
2023-02-26T00:54:37.762Z,8.20
2023-02-26T00:57:08.607Z,8.20
2023-02-26T00:59:39.476Z,8.00
2023-02-26T01:02:10.448Z,8.00
2023-02-26T01:04:42.294Z,7.90
2023-02-26T01:07:14.246Z,7.90
2023-02-26T01:09:45.576Z,8.10
2023-02-26T01:12:17.597Z,8.10
2023-02-26T01:14:50.454Z,8.10
2023-02-26T01:17:33.465Z,7.90
2023-02-26T01:20:37.467Z,7.80
2023-02-26T01:23:27.682Z,7.90
2023-02-26T01:26:12.132Z,8.00
2023-02-26T01:28:43.439Z,7.70
2023-02-26T01:31:39.821Z,7.70
2023-02-26T01:34:22.531Z,7.60
2023-02-26T01:37:26.166Z,7.30
2023-02-26T01:40:53.505Z,7.60
2023-02-26T01:43:52.351Z,7.60
2023-02-26T01:46:29.126Z,7.50
2023-02-26T01:49:01.381Z,7.50
2023-02-26T01:51:57.353Z,7.40
2023-02-26T01:54:38.420Z,7.60
2023-02-26T01:57:17.785Z,7.50
2023-02-26T01:59:51.888Z,7.40
2023-02-26T02:02:25.621Z,7.50
2023-02-26T02:04:56.800Z,7.30
2023-02-26T02:07:27.800Z,7.40
2023-02-26T02:09:59.000Z,7.50
2023-02-26T02:12:53.221Z,7.40
2023-02-26T02:15:48.351Z,7.30
2023-02-26T02:18:22.962Z,7.40
2023-02-26T02:21:33.885Z,7.40
2023-02-26T02:24:13.615Z,7.20
2023-02-26T02:26:56.678Z,7.30
2023-02-26T02:29:54.871Z,7.20
2023-02-26T02:32:58.863Z,7.10
2023-02-26T02:35:42.121Z,7.00
2023-02-26T02:38:31.711Z,7.10
2023-02-26T02:41:20.578Z,7.20
2023-02-26T02:43:53.052Z,7.10
2023-02-26T02:46:30.183Z,7.10
2023-02-26T02:49:13.723Z,7.10
2023-02-26T02:52:06.727Z,7.10
2023-02-26T02:54:58.405Z,7.00
2023-02-26T02:57:39.027Z,6.80
2023-02-26T03:00:12.656Z,6.80
2023-02-26T03:03:12.090Z,6.90
2023-02-26T03:05:43.218Z,6.90
2023-02-26T03:08:19.733Z,6.90
2023-02-26T03:10:50.896Z,6.70
2023-02-26T03:13:25.081Z,6.80
2023-02-26T03:16:36.895Z,6.80
2023-02-26T03:19:41.860Z,7.00
2023-02-26T03:22:21.550Z,7.00
2023-02-26T03:25:09.564Z,6.90
2023-02-26T03:27:55.667Z,7.20
2023-02-26T03:30:34.982Z,6.90
2023-02-26T03:33:39.416Z,6.80
2023-02-26T03:36:28.237Z,7.00
2023-02-26T03:39:32.170Z,7.20
2023-02-26T03:42:10.162Z,6.90
2023-02-26T03:44:56.164Z,6.80
2023-02-26T03:47:28.262Z,7.10
2023-02-26T03:50:09.594Z,7.20
2023-02-26T03:52:43.448Z,7.20
2023-02-26T03:55:20.314Z,6.90
2023-02-26T03:57:51.278Z,7.00
2023-02-26T04:00:23.593Z,6.90
2023-02-26T04:03:03.915Z,6.90
2023-02-26T04:05:42.641Z,6.60
2023-02-26T04:08:13.728Z,6.50
2023-02-26T04:10:58.607Z,6.50
2023-02-26T04:13:29.583Z,6.50
2023-02-26T04:16:00.520Z,6.80
2023-02-26T04:18:31.774Z,6.50
2023-02-26T04:21:02.769Z,6.10
2023-02-26T04:23:33.880Z,6.40
2023-02-26T04:26:05.038Z,6.30
2023-02-26T04:28:37.878Z,6.20
2023-02-26T04:31:10.774Z,5.90
2023-02-26T04:33:41.761Z,6.00
2023-02-26T04:36:12.681Z,5.70
2023-02-26T04:38:43.539Z,5.80
2023-02-26T04:41:14.486Z,6.00
2023-02-26T04:43:45.371Z,6.10
2023-02-26T04:46:16.313Z,6.10
2023-02-26T04:48:47.305Z,6.00
2023-02-26T04:51:18.215Z,5.90
2023-02-26T04:53:49.120Z,5.60
2023-02-26T04:56:20.057Z,5.60
2023-02-26T04:58:51.005Z,5.60
2023-02-26T05:01:21.928Z,6.00
2023-02-26T05:03:52.903Z,5.70
2023-02-26T05:06:24.088Z,5.80
2023-02-26T05:08:55.137Z,5.90
2023-02-26T05:11:26.012Z,5.50
2023-02-26T05:13:56.974Z,5.60
2023-02-26T05:16:28.280Z,5.40
2023-02-26T05:18:59.546Z,5.70
2023-02-26T05:21:30.400Z,5.70
2023-02-26T05:24:01.393Z,5.40
2023-02-26T05:26:32.317Z,5.80
2023-02-26T05:29:03.268Z,5.50
2023-02-26T05:31:34.190Z,5.60
2023-02-26T05:34:05.190Z,5.30
2023-02-26T05:36:36.180Z,5.50
2023-02-26T05:39:07.052Z,5.60
2023-02-26T05:41:37.929Z,5.40
2023-02-26T05:44:09.237Z,5.40
2023-02-26T05:46:40.230Z,5.30
2023-02-26T05:49:11.211Z,5.10
2023-02-26T05:51:42.880Z,5.20
2023-02-26T05:54:13.792Z,5.30
2023-02-26T05:56:44.896Z,5.30
2023-02-26T05:59:15.792Z,5.20
2023-02-26T06:01:46.795Z,5.20
2023-02-26T06:04:17.975Z,5.20
2023-02-26T06:06:48.833Z,5.30
2023-02-26T06:09:19.722Z,5.40
2023-02-26T06:11:50.776Z,5.60
2023-02-26T06:14:21.724Z,5.30
2023-02-26T06:16:52.580Z,5.30
2023-02-26T06:19:23.480Z,5.30
2023-02-26T06:21:54.430Z,5.40
2023-02-26T06:24:25.565Z,5.60
2023-02-26T06:26:56.487Z,5.60
2023-02-26T06:29:27.377Z,5.80
2023-02-26T06:31:58.373Z,5.60
2023-02-26T06:34:29.293Z,5.60
2023-02-26T06:37:00.279Z,5.80
2023-02-26T06:39:31.478Z,5.70
2023-02-26T06:42:02.408Z,6.00
2023-02-26T06:44:33.356Z,6.10
2023-02-26T06:47:04.630Z,6.00
2023-02-26T06:49:35.508Z,5.70
2023-02-26T06:52:06.640Z,5.90
2023-02-26T06:54:37.540Z,5.80
2023-02-26T06:57:08.399Z,5.70
2023-02-26T06:59:39.404Z,5.90
2023-02-26T07:02:18.045Z,6.40
2023-02-26T07:04:49.546Z,6.10
2023-02-26T07:07:20.574Z,6.30
2023-02-26T07:09:51.559Z,6.30
2023-02-26T07:12:22.481Z,6.20
2023-02-26T07:14:53.409Z,6.00
2023-02-26T07:17:24.368Z,6.10
2023-02-26T07:19:55.245Z,6.50
2023-02-26T07:22:26.134Z,6.40
2023-02-26T07:24:57.014Z,6.30
2023-02-26T07:27:29.946Z,6.40
2023-02-26T07:30:01.538Z,6.70
2023-02-26T07:32:32.833Z,6.80
2023-02-26T07:35:04.413Z,7.00
2023-02-26T07:37:35.267Z,7.00
2023-02-26T07:40:07.280Z,7.00
2023-02-26T07:42:38.452Z,7.00
2023-02-26T07:45:10.221Z,7.00
2023-02-26T07:47:41.054Z,6.60
2023-02-26T07:50:12.325Z,6.70
2023-02-26T07:52:43.268Z,6.80
2023-02-26T07:55:14.521Z,6.50
2023-02-26T07:57:45.623Z,6.60
2023-02-26T08:00:17.615Z,6.60
2023-02-26T08:02:48.554Z,6.70
2023-02-26T08:05:19.742Z,6.50
2023-02-26T08:07:50.585Z,6.70
2023-02-26T08:10:21.508Z,7.20
2023-02-26T08:12:52.415Z,6.90
2023-02-26T08:15:23.514Z,7.20
2023-02-26T08:17:54.745Z,9.50
2023-02-26T08:20:25.757Z,8.90
2023-02-26T08:22:56.680Z,8.70
2023-02-26T08:25:27.590Z,8.20
2023-02-26T08:27:58.685Z,8.20
2023-02-26T08:30:30.440Z,7.80
2023-02-26T08:33:01.300Z,7.50
2023-02-26T08:35:32.251Z,7.10
2023-02-26T08:38:03.139Z,7.20
2023-02-26T08:40:34.017Z,7.10
2023-02-26T08:43:04.983Z,7.60
2023-02-26T08:45:35.954Z,6.80
2023-02-26T08:48:09.871Z,7.30
2023-02-26T08:50:41.868Z,7.30
2023-02-26T08:53:12.844Z,6.70
2023-02-26T08:55:44.989Z,7.00
2023-02-26T08:58:16.151Z,7.10
2023-02-26T09:00:47.640Z,6.80
2023-02-26T09:03:18.583Z,6.70
2023-02-26T09:05:51.122Z,6.90
2023-02-26T09:08:21.966Z,7.50
2023-02-26T09:10:52.898Z,6.90
2023-02-26T09:13:23.727Z,7.00
2023-02-26T09:15:54.813Z,6.10
2023-02-26T09:18:25.859Z,6.70
2023-02-26T09:20:57.133Z,7.10
2023-02-26T09:23:28.008Z,7.10
2023-02-26T09:25:59.023Z,7.00
2023-02-26T09:28:29.913Z,6.90
2023-02-26T09:31:00.957Z,6.60
2023-02-26T09:33:31.848Z,6.90
2023-02-26T09:36:02.876Z,6.80
2023-02-26T09:38:36.020Z,6.80
2023-02-26T09:41:17.084Z,6.60
2023-02-26T09:44:04.067Z,7.00
2023-02-26T09:47:07.454Z,6.90
2023-02-26T09:49:57.459Z,6.90
2023-02-26T09:52:46.930Z,7.20
2023-02-26T09:55:43.674Z,7.00
2023-02-26T09:58:33.765Z,7.00
2023-02-26T10:01:14.562Z,7.30
2023-02-26T10:04:24.461Z,7.40
2023-02-26T10:07:21.136Z,7.20
2023-02-26T10:10:24.481Z,6.90
2023-02-26T10:12:56.746Z,7.40
2023-02-26T10:15:37.626Z,6.80
2023-02-26T10:18:27.021Z,7.00
2023-02-26T10:21:13.312Z,7.60
2023-02-26T10:23:52.063Z,7.50
2023-02-26T10:26:46.820Z,7.60
2023-02-26T10:29:45.546Z,7.80
2023-02-26T10:32:52.255Z,8.20
2023-02-26T10:35:27.681Z,7.70
2023-02-26T10:38:04.592Z,7.40
2023-02-26T10:40:44.010Z,7.80
2023-02-26T10:43:40.781Z,8.30
2023-02-26T10:46:32.810Z,7.80
2023-02-26T10:49:45.290Z,7.80
2023-02-26T10:52:20.561Z,7.90
2023-02-26T10:55:29.812Z,8.10
2023-02-26T10:58:16.704Z,7.60
2023-02-26T11:00:53.810Z,7.20
2023-02-26T11:03:30.344Z,8.10
2023-02-26T11:06:06.739Z,8.10
2023-02-26T11:08:43.731Z,8.00
2023-02-26T11:11:37.779Z,8.00
2023-02-26T11:14:10.029Z,8.10
2023-02-26T11:16:49.247Z,8.10
2023-02-26T11:19:28.728Z,8.30
2023-02-26T11:22:02.628Z,8.00
2023-02-26T11:24:38.514Z,8.20
2023-02-26T11:27:26.834Z,8.40
2023-02-26T11:30:03.658Z,8.20
2023-02-26T11:32:37.444Z,8.50
2023-02-26T11:35:09.666Z,8.30
2023-02-26T11:37:48.419Z,8.80
2023-02-26T11:40:38.690Z,9.10
2023-02-26T11:43:19.260Z,9.00
2023-02-26T11:45:59.001Z,8.20
2023-02-26T11:48:43.841Z,8.90
2023-02-26T11:51:25.963Z,8.30
2023-02-26T11:54:01.972Z,9.10
2023-02-26T11:56:42.857Z,9.30
2023-02-26T11:59:24.966Z,8.40
2023-02-26T12:01:55.831Z,8.10
2023-02-26T12:04:27.878Z,8.00
2023-02-26T12:06:58.925Z,8.40
2023-02-26T12:09:29.797Z,8.50
2023-02-26T12:12:13.663Z,8.60
2023-02-26T12:15:20.702Z,9.00
2023-02-26T12:18:06.539Z,8.00
2023-02-26T12:20:54.334Z,8.60
2023-02-26T12:24:01.912Z,8.60
2023-02-26T12:26:41.356Z,8.30
2023-02-26T12:29:40.230Z,8.50
2023-02-26T12:33:01.389Z,8.10
2023-02-26T12:36:00.954Z,8.90
2023-02-26T12:38:48.329Z,9.00
2023-02-26T12:41:40.429Z,8.20
2023-02-26T12:44:51.418Z,8.70
2023-02-26T12:47:30.995Z,8.80
2023-02-26T12:50:19.891Z,9.20
2023-02-26T12:53:16.008Z,9.00
2023-02-26T12:55:55.617Z,9.40
2023-02-26T12:58:53.998Z,9.40
2023-02-26T13:02:10.004Z,8.90
2023-02-26T13:05:36.806Z,8.20
2023-02-26T13:08:59.389Z,8.50
2023-02-26T13:11:57.784Z,8.70
2023-02-26T13:15:18.503Z,8.80
2023-02-26T13:18:26.430Z,8.60
2023-02-26T13:21:29.145Z,9.00
2023-02-26T13:24:12.414Z,10.00
2023-02-26T13:26:45.034Z,9.50
2023-02-26T13:29:28.944Z,9.00
2023-02-26T13:32:15.097Z,8.90
2023-02-26T13:34:58.767Z,9.40
2023-02-26T13:37:41.549Z,9.30
2023-02-26T13:40:54.943Z,9.40
2023-02-26T13:43:48.342Z,9.40
2023-02-26T13:46:57.155Z,9.00
2023-02-26T13:49:51.004Z,8.60
2023-02-26T13:52:35.412Z,8.90
2023-02-26T13:55:07.053Z,9.30
2023-02-26T13:57:54.204Z,9.50
2023-02-26T14:00:36.356Z,10.20
2023-02-26T14:03:36.655Z,9.30
2023-02-26T14:06:11.854Z,8.60
2023-02-26T14:08:47.055Z,8.90
2023-02-26T14:11:18.404Z,9.00
2023-02-26T14:14:19.159Z,8.90
2023-02-26T14:17:08.392Z,8.90
2023-02-26T14:19:42.306Z,9.00
2023-02-26T14:22:23.856Z,8.90
2023-02-26T14:24:54.706Z,8.70
2023-02-26T14:27:38.796Z,8.80
2023-02-26T14:30:09.688Z,8.20
2023-02-26T14:32:55.298Z,9.10
2023-02-26T14:35:31.632Z,9.10
2023-02-26T14:38:12.973Z,8.90
2023-02-26T14:40:51.039Z,8.60
2023-02-26T14:43:43.885Z,8.80
2023-02-26T14:46:15.297Z,9.10
2023-02-26T14:48:47.407Z,9.70
2023-02-26T14:51:45.522Z,10.20
2023-02-26T14:54:43.771Z,9.60
2023-02-26T14:57:44.175Z,9.20
2023-02-26T15:00:45.355Z,9.40
2023-02-26T15:04:05.701Z,8.50
2023-02-26T15:07:04.190Z,8.90
2023-02-26T15:10:23.053Z,8.90
2023-02-26T15:13:32.020Z,8.60
2023-02-26T15:16:43.083Z,8.20
2023-02-26T15:20:20.204Z,8.90
2023-02-26T15:23:05.745Z,8.70
2023-02-26T15:25:42.220Z,8.50
2023-02-26T15:28:27.260Z,9.10
2023-02-26T15:31:02.795Z,8.50
2023-02-26T15:33:34.509Z,8.50
2023-02-26T15:36:12.635Z,7.80
2023-02-26T15:38:50.347Z,8.20
2023-02-26T15:41:23.531Z,8.70
2023-02-26T15:44:03.896Z,8.40
2023-02-26T15:46:41.624Z,8.50
2023-02-26T15:49:29.703Z,8.90
2023-02-26T15:52:03.751Z,8.70
2023-02-26T15:55:00.288Z,8.70
2023-02-26T15:57:32.104Z,9.00
2023-02-26T16:00:16.326Z,8.20
2023-02-26T16:02:50.329Z,7.90
2023-02-26T16:05:21.749Z,8.20
2023-02-26T16:07:52.830Z,8.10
2023-02-26T16:10:41.196Z,8.30
2023-02-26T16:13:27.152Z,8.30
2023-02-26T16:16:25.067Z,8.10
2023-02-26T16:18:57.796Z,8.30
2023-02-26T16:21:38.525Z,8.30
2023-02-26T16:24:18.878Z,8.50
2023-02-26T16:26:57.830Z,8.00
2023-02-26T16:29:32.069Z,8.60
2023-02-26T16:32:05.347Z,8.90
2023-02-26T16:34:52.189Z,8.50
2023-02-26T16:37:29.274Z,8.50
2023-02-26T16:40:09.278Z,7.80
2023-02-26T16:43:05.298Z,8.40
2023-02-26T16:45:36.800Z,9.40
2023-02-26T16:48:31.749Z,9.10
2023-02-26T16:51:14.551Z,8.50
2023-02-26T16:54:05.281Z,8.30
2023-02-26T16:56:42.554Z,8.20
2023-02-26T16:59:13.535Z,8.60
2023-02-26T17:02:24.644Z,8.10
2023-02-26T17:05:02.503Z,8.60
2023-02-26T17:07:37.104Z,8.20
2023-02-26T17:10:39.337Z,9.10
2023-02-26T17:13:28.666Z,8.40
2023-02-26T17:16:08.356Z,7.80
2023-02-26T17:18:39.720Z,8.50
2023-02-26T17:21:10.870Z,8.30
2023-02-26T17:23:42.062Z,8.60
2023-02-26T17:26:13.352Z,8.70
2023-02-26T17:28:45.217Z,8.50
2023-02-26T17:31:16.247Z,8.50
2023-02-26T17:33:47.244Z,8.20
2023-02-26T17:36:20.511Z,8.30
2023-02-26T17:38:51.649Z,8.50
2023-02-26T17:41:22.746Z,8.50
2023-02-26T17:43:53.754Z,8.00
2023-02-26T17:46:24.799Z,8.40
2023-02-26T17:48:55.890Z,8.20
2023-02-26T17:51:27.685Z,8.10
2023-02-26T17:53:59.033Z,8.30
2023-02-26T17:56:33.346Z,7.90
2023-02-26T17:59:07.225Z,7.80
2023-02-26T18:01:38.729Z,7.70
2023-02-26T18:04:10.169Z,7.90
2023-02-26T18:06:41.513Z,7.60
2023-02-26T18:09:13.741Z,7.80
2023-02-26T18:11:44.930Z,7.70
2023-02-26T18:14:16.219Z,7.40
2023-02-26T18:16:47.561Z,7.10
2023-02-26T18:19:18.996Z,7.10
2023-02-26T18:21:50.135Z,7.20
2023-02-26T18:24:21.449Z,6.90
2023-02-26T18:26:52.908Z,7.20
2023-02-26T18:29:23.758Z,7.00
2023-02-26T18:31:54.985Z,7.40
2023-02-26T18:34:26.640Z,7.40
2023-02-26T18:36:57.812Z,6.90
2023-02-26T18:39:32.590Z,6.70
2023-02-26T18:42:05.307Z,7.10
2023-02-26T18:44:36.692Z,7.10
2023-02-26T18:47:09.068Z,7.80
2023-02-26T18:49:40.163Z,7.30
2023-02-26T18:52:11.793Z,7.00
2023-02-26T18:54:42.766Z,7.50
2023-02-26T18:57:15.199Z,7.50
2023-02-26T18:59:46.087Z,7.40
2023-02-26T19:02:17.412Z,8.50
2023-02-26T19:04:48.524Z,7.50
2023-02-26T19:07:19.433Z,7.20
2023-02-26T19:09:50.450Z,7.30
2023-02-26T19:12:23.184Z,7.40
2023-02-26T19:14:54.499Z,6.70
2023-02-26T19:17:25.449Z,7.00
2023-02-26T19:19:56.316Z,7.40
2023-02-26T19:22:27.341Z,7.10
2023-02-26T19:24:58.309Z,6.70
2023-02-26T19:27:29.264Z,6.90
2023-02-26T19:30:00.169Z,7.00
2023-02-26T19:32:31.448Z,7.40
2023-02-26T19:35:02.504Z,6.90
2023-02-26T19:37:33.394Z,7.20
2023-02-26T19:40:10.399Z,7.10
2023-02-26T19:42:41.484Z,7.00
2023-02-26T19:45:14.562Z,7.10
2023-02-26T19:47:45.524Z,7.00
2023-02-26T19:50:19.152Z,7.20
2023-02-26T19:52:50.035Z,7.20
2023-02-26T19:55:21.105Z,7.40
2023-02-26T19:57:52.026Z,6.90
2023-02-26T20:00:23.446Z,6.50
2023-02-26T20:02:55.678Z,6.60
2023-02-26T20:05:26.728Z,6.60
2023-02-26T20:07:57.620Z,6.90
2023-02-26T20:10:29.293Z,6.60
2023-02-26T20:13:00.140Z,6.90
2023-02-26T20:15:31.083Z,7.10
2023-02-26T20:18:01.965Z,6.90
2023-02-26T20:20:32.893Z,6.90
2023-02-26T20:23:03.989Z,6.60
2023-02-26T20:25:34.917Z,6.50
2023-02-26T20:28:05.845Z,6.70
2023-02-26T20:30:37.408Z,7.10
2023-02-26T20:33:08.506Z,6.80
2023-02-26T20:35:45.749Z,6.70
2023-02-26T20:38:19.071Z,7.10
2023-02-26T20:40:50.135Z,6.80
2023-02-26T20:43:21.143Z,6.80
2023-02-26T20:45:54.003Z,6.80
2023-02-26T20:48:25.306Z,6.60
2023-02-26T20:51:01.854Z,6.70
2023-02-26T20:53:32.781Z,6.40
2023-02-26T20:56:04.100Z,6.40
2023-02-26T20:58:35.108Z,7.10
2023-02-26T21:01:06.251Z,7.00
2023-02-26T21:03:37.202Z,6.70
2023-02-26T21:06:08.695Z,7.00
2023-02-26T21:08:39.574Z,7.10
2023-02-26T21:11:10.526Z,7.30
2023-02-26T21:13:41.436Z,7.00
2023-02-26T21:16:13.462Z,6.80
2023-02-26T21:18:44.417Z,7.20
2023-02-26T21:21:15.439Z,6.80
2023-02-26T21:23:46.417Z,7.90
2023-02-26T21:26:17.503Z,7.60
2023-02-26T21:28:48.741Z,7.80
2023-02-26T21:31:21.926Z,7.70
2023-02-26T21:33:53.039Z,7.40
2023-02-26T21:36:24.123Z,7.20
2023-02-26T21:38:55.066Z,7.20
2023-02-26T21:41:26.178Z,7.10
2023-02-26T21:43:57.178Z,7.00
2023-02-26T21:46:28.195Z,6.90
2023-02-26T21:48:59.022Z,9.20
2023-02-26T21:51:30.213Z,9.60
2023-02-26T21:54:01.219Z,8.70
2023-02-26T21:56:32.245Z,7.90
2023-02-26T21:59:03.441Z,7.00
2023-02-26T22:01:34.729Z,7.40
2023-02-26T22:04:05.705Z,7.20
2023-02-26T22:06:37.280Z,7.10
2023-02-26T22:09:08.306Z,7.20
2023-02-26T22:11:39.506Z,7.30
2023-02-26T22:14:10.398Z,7.50
2023-02-26T22:16:41.345Z,7.00
2023-02-26T22:19:12.499Z,7.30
2023-02-26T22:21:43.412Z,6.90
2023-02-26T22:24:14.292Z,7.00
2023-02-26T22:26:46.998Z,7.10
2023-02-26T22:29:19.364Z,6.80
2023-02-26T22:31:51.032Z,6.90
2023-02-26T22:34:22.266Z,6.80
2023-02-26T22:36:53.900Z,6.80
2023-02-26T22:39:24.886Z,7.10
2023-02-26T22:41:55.780Z,6.90
2023-02-26T22:44:26.842Z,6.70
2023-02-26T22:46:57.816Z,6.90
2023-02-26T22:49:28.859Z,6.80
2023-02-26T22:51:59.738Z,6.50
2023-02-26T22:54:30.625Z,6.50
2023-02-26T22:57:01.517Z,6.30
2023-02-26T22:59:32.384Z,6.50
2023-02-26T23:02:03.402Z,6.70
2023-02-26T23:04:34.684Z,6.50
2023-02-26T23:07:05.604Z,6.20
2023-02-26T23:09:37.336Z,6.40
2023-02-26T23:12:09.238Z,6.30
2023-02-26T23:14:40.304Z,6.50
2023-02-26T23:17:11.773Z,6.20
2023-02-26T23:19:42.689Z,6.30
2023-02-26T23:22:13.570Z,6.40
2023-02-26T23:24:46.375Z,6.40
2023-02-26T23:27:17.855Z,6.20
2023-02-26T23:29:48.725Z,6.10
2023-02-26T23:32:19.822Z,6.10
2023-02-26T23:34:50.757Z,6.20
2023-02-26T23:37:21.744Z,6.40
2023-02-26T23:39:53.041Z,6.20
2023-02-26T23:42:24.022Z,6.60
2023-02-26T23:44:54.900Z,6.00
2023-02-26T23:47:25.871Z,5.90
2023-02-26T23:49:56.756Z,6.20
2023-02-26T23:52:27.768Z,5.90
2023-02-26T23:54:58.894Z,6.00
2023-02-26T23:57:30.776Z,6.30
